CheckWX is a tool to help pilots better visualize weather data.  It is not intended as a substitute for an official pre-flight weather briefing.

07:35:05 UTC

RJOB TAF
Okayama Airport
Okayama City, Japan
TAF RJOB 190508Z 1906/2012 13005KT 9999 FEW025 SCT035 BECMG 2000/2003 21006KT BECMG 2009/2012 36005KT

Jun-19@
06:00 UTC

Jun-19 @ 06:00 UTC

Jun-20@
00:00 UTC

Jun-20 @ 00:00 UTC

TAF RJOB 190508Z 1906/2012 13005KT 9999 FEW025 SCT035
Wind
  • 130° at 5 KTS
Cloud Levels
  • Few at 2,500' AGL
  • Scattered at 3,500' AGL

Jun-20@
00:00 UTC

Jun-20 @ 00:00 UTC

Jun-20@
09:00 UTC

Jun-20 @ 09:00 UTC

BECMG 2000/2003 21006KT

Becoming

Becoming Conditions expected by Thu, Jun 20, 2019 @ 03:00 UTC

Wind
  • 210° at 6 KTS
Cloud Levels
  • Few at 2,500' AGL
  • Scattered at 3,500' AGL

Jun-20@
09:00 UTC

Jun-20 @ 09:00 UTC

Jun-20@
12:00 UTC

Jun-20 @ 12:00 UTC

BECMG 2009/2012 36005KT

Becoming

Becoming Conditions expected by Thu, Jun 20, 2019 @ 12:00 UTC

Wind
  • 360° at 5 KTS
Cloud Levels
  • Few at 2,500' AGL
  • Scattered at 3,500' AGL